Rait Financial Trust (RAS) Latest Bloomsberg Price


Mffais Ranking #1794 Overall / #29 Industry
Industry: Mortgage Finance

Number of Companies: 74 (Ranking #1966 Overall/#31 Industry)
Inflow: $ 2,173 (K) (Ranking #2405 Overall/#38 Industry)
Outflow: $ -9,698 (K)
Mffais Flow: $ -7,525 (K) (Ranking #1794 Overall/#29 Industry)


Receive a FREE weekly executive review of stocks moving into the top 10, taking the top industy spot or moving up within their industry. Sent directly to your Inbox every Saturday. Sign up today and get last week's review immediately sent to you.

We value and respect your privacy. Please read our Terms and Conditions which states our firm commitment to your privacy. Your email address will not be shared with a third party, nor will it be sold or used for purposes other than subscription for the weekly review.

Owner CPOR Shares Action Qty Chg Invested (K) Total Current Value (K)
Royce Associates Lp 2016-09-30 483,547 Added More 165,500 $ 524 $ 1,532
Gsa Capital Partners Llp 2016-09-30 214,800 Added More 119,200 $ 377 $ 680
Secor Capital Advisors Lp 2016-09-30 76,508 New Holding 76,508 $ 242 $ 242
Foundry Partners Llc 2016-09-30 1,508,653 Added More 73,867 $ 234 $ 4,782
Kcg Holdings Inc 2016-09-30 65,594 New Holding 65,594 $ 207 $ 207
Parametric Portfolio Associates Llc 2016-09-30 442,777 Added More 65,210 $ 206 $ 1,403
Squarepoint Ops Llc 2016-09-30 33,469 New Holding 33,469 $ 106 $ 106
Indexiq Advisors Llc 2016-09-30 91,344 Added More 18,119 $ 57 $ 289
Group One Trading L P 2016-09-30 17,500 New Holding 17,500 $ 55 $ 55
Raymond James Associates 2016-09-30 23,032 Added More 11,500 $ 36 $ 73
Verition Fund Management Llc 2016-09-30 10,052 New Holding 10,052 $ 31 $ 31
Connor Clark Lunn Investment Management Ltd 2016-09-30 172,375 Added More 8,100 $ 25 $ 546
Cutler Group Lp 2016-09-30 30,751 Added More 4,300 $ 13 $ 97
Northern Trust Corp 2016-09-30 1,050,374 Added More 4,157 $ 13 $ 3,329
Pnc Financial Services Group Inc 2016-09-30 4,573 Added More 3,827 $ 12 $ 14
Envestnet Asset Management Inc 2016-09-30 19,144 Added More 2,191 $ 6 $ 60
California State Teachers Retirement System 2016-09-30 194,333 Added More 1,800 $ 5 $ 616
Blackrock Investment Management Llc 2016-09-30 367,207 Added More 1,406 $ 4 $ 1,164
Wedbush Securities Inc 2016-09-30 13,672 Added More 1,178 $ 3 $ 43
Sei Investments Co 2016-09-30 1,588 Added More 1,088 $ 3 $ 5
Peak6 Investments L P 2016-09-30 17,370 Added More 394 $ 1 $ 55
Penserra Capital Management Llc 2016-09-30 1,188 Added More 322 $ 1 $ 3
Private Advisor Group Llc 2016-09-30 10,814 Added More 212 $ 0 $ 34
American International Group Inc 2016-09-30 52,938 Added More 81 $ 0 $ 167
Moors Cabot Inc 2016-09-30 17,876 Added More 46 $ 0 $ 56
Tricadia Capital Management Llc 2016-09-30 6,622,380 No Change 0 $ 0 $ 20,992
Fifth Third Bancorp 2016-09-30 342 No Change 0 $ 0 $ 1
Legal General Group Plc 2016-09-30 11,301 No Change 0 $ 0 $ 35
New York State Common Retirement Fund 2016-09-30 75,600 No Change 0 $ 0 $ 239
Tudor Investment Corp Et Al 2016-09-30 27,286 No Change 0 $ 0 $ 86
Nisa Investment Advisors Llc 2016-09-30 18,600 No Change 0 $ 0 $ 58
Teachers Advisors Inc 2016-09-30 150,795 No Change 0 $ 0 $ 478
Schneider Capital Management Corp 2016-09-30 34,591 No Change 0 $ 0 $ 109
Nationwide Fund Advisors 2016-09-30 466,401 No Change 0 $ 0 $ 1,478
Rmr Advisors Llc 2016-09-30 178,419 No Change 0 $ 0 $ 565
Blackrock Inc 2016-09-30 20,365 No Change 0 $ 0 $ 64
Zurcher Kantonalbank Zurich Cantonalbank 2016-09-30 2,259 No Change 0 $ 0 $ 7
Ballentine Partners Llc 2016-09-30 14,534 No Change 0 $ 0 $ 46
Clarivest Asset Management Llc 2016-09-30 91 No Change 0 $ 0 $ 0
Pinnacle Holdings Llc 2016-09-30 54,800 No Change 0 $ 0 $ 173
Financial Architects Inc 2016-09-30 13,466 No Change 0 $ 0 $ 42
Msi Financial Services Inc 2016-09-30 201 No Change 0 $ 0 $ 0
Creative Planning 2016-09-30 545,300 No Change 0 $ 0 $ 1,728
Swiss National Bank 2016-09-30 150,450 No Change 0 $ 0 $ 476
Polaris Greystone Financial Group Llc 2016-09-30 12,500 No Change 0 $ 0 $ 39
Holt Capital Advisors L L C Dba Holt Capital Partners L P 2016-09-30 283,333 No Change 0 $ 0 $ 898
Exane Derivatives 2016-09-30 1 No Change 0 $ 0 $ 0
Ifp Advisors Inc 2016-09-30 2,839 No Change 0 $ 0 $ 9
Lgl Partners Llc 2016-09-30 11,947 No Change 0 $ 0 $ 37
Cedar Wealth Management Llc 2016-09-30 2,280 No Change 0 $ 0 $ 7
Tower Research Capital Llc Trc 2016-09-30 0 New Holding 0 $ 0 $ 0
Eubel Brady Suttman Asset Management Inc 2016-09-30 47,614 Sold Some -125 $ -0 $ 150
Rhumbline Advisers 2016-09-30 121,432 Sold Some -200 $ -0 $ 384
Arrow Financial Corp 2016-09-30 0 Sold All -333 $ -1 $ 0
Shinko Asset Management Co Ltd 2016-09-30 2,600 Sold Some -800 $ -2 $ 8
Strs Ohio 2016-09-30 28,500 Sold Some -1,100 $ -3 $ 90
Ladenburg Thalmann Financial Services Inc 2016-09-30 231,583 Sold Some -1,839 $ -5 $ 734
Simplex Trading Llc 2016-09-30 0 Sold All -1,904 $ -6 $ 0
Rehmann Capital Advisory Group 2016-09-30 10,000 Sold Some -2,091 $ -6 $ 31
Stifel Financial Corp 2016-09-30 263,932 Sold Some -5,087 $ -16 $ 836
Rbf Capital Llc 2016-09-30 21,000 Sold Some -9,000 $ -28 $ 66
Atlanta Capital Group 2016-09-30 0 Sold All -11,223 $ -35 $ 0
Proshare Advisors Llc 2016-09-30 0 Sold All -11,230 $ -35 $ 0
Stanley-Laman Group Ltd 2016-09-30 0 Sold All -12,000 $ -38 $ 0
Teacher Retirement System Of Texas 2016-09-30 0 Sold All -12,824 $ -40 $ 0
Acrospire Investment Management Llc 2016-09-30 0 Sold All -13,106 $ -41 $ 0
Spot Trading L L C 2016-09-30 0 Sold All -13,600 $ -43 $ 0
Empirical Financial Services Llc 2016-09-30 0 Sold All -30,500 $ -96 $ 0
Menta Capital Llc 2016-09-30 0 Sold All -47,995 $ -152 $ 0
Jacobs Levy Equity Management Inc 2016-09-30 0 Sold All -85,000 $ -269 $ 0
Cetera Advisors Llc 2016-09-30 875,268 Sold Some -128,742 $ -408 $ 2,774
A R T Advisors Llc 2016-09-30 13,500 Sold Some -141,295 $ -447 $ 42
Emerald Acquisition Ltd 2016-09-30 75,900 Sold Some -279,623 $ -886 $ 240
Sterling Capital Management Llc 2016-09-30 0 Sold All -2,250,000 $ -7,132 $ 0